Time;durP1;ratioP1;P1;durP2;ratioP2;P2;SDS_P1;SDS_P2;PMS_P1;PMS_P2;Temp;Humidity;BMP_temperature;BMP_pressure;BME280_temperature;BME280_humidity;BME280_pressure;Samples;Min_cycle;Max_cycle;Signal;HPM_P1;HPM_P2
2021/07/01 00:00:16;;;;;;;;;;;18.70;63.20;;;;;;1488242;40;19972;-77
2021/07/01 00:01:36;;;;;;;;;;;18.70;63.20;;;;;;1487202;40;20247;-76
2021/07/01 00:02:57;;;;;;;;;;;18.70;63.20;;;;;;1487259;40;19960;-76
2021/07/01 00:04:18;;;;;;;;;;;18.70;63.30;;;;;;1487154;40;19936;-77
2021/07/01 00:05:40;;;;;;;;;;;18.70;63.50;;;;;;1486441;40;20136;-76
2021/07/01 00:07:00;;;;;;;;;;;18.60;63.10;;;;;;1486836;40;19950;-76
2021/07/01 00:08:22;;;;;;;;;;;18.70;63.40;;;;;;1486313;40;20025;-76
2021/07/01 00:09:42;;;;;;;;;;;18.70;63.50;;;;;;1486150;40;19947;-76
2021/07/01 00:11:03;;;;;;;;;;;18.70;64.20;;;;;;1487768;40;19951;-76
2021/07/01 00:12:24;;;;;;;;;;;18.60;63.30;;;;;;1487973;40;19938;-76
2021/07/01 00:13:45;;;;;;;;;;;18.60;63.20;;;;;;1485868;40;19972;-74
2021/07/01 00:15:07;;;;;;;;;;;18.70;63.30;;;;;;1486485;40;20238;-75
2021/07/01 00:16:28;;;;;;;;;;;18.60;63.10;;;;;;1486650;40;20210;-75
2021/07/01 00:17:49;;;;;;;;;;;18.60;63.00;;;;;;1485932;39;19944;-75
2021/07/01 00:19:09;;;;;;;;;;;18.60;63.20;;;;;;1487595;39;20800;-75
2021/07/01 00:20:30;;;;;;;;;;;18.60;63.00;;;;;;1485782;40;20284;-76
2021/07/01 00:21:52;;;;;;;;;;;18.60;63.30;;;;;;1484598;40;19967;-75
2021/07/01 00:23:12;;;;;;;;;;;18.60;63.20;;;;;;1487097;40;20022;-76
2021/07/01 00:24:33;;;;;;;;;;;18.60;63.20;;;;;;1485479;40;19940;-75
2021/07/01 00:25:54;;;;;;;;;;;18.60;63.20;;;;;;1487742;40;19943;-76
2021/07/01 00:27:15;;;;;;;;;;;18.60;63.30;;;;;;1488522;40;19978;-74
2021/07/01 00:28:35;;;;;;;;;;;18.60;63.20;;;;;;1482310;40;19948;-76
2021/07/01 00:29:56;;;;;;;;;;;19.60;63.80;;;;;;1488135;39;19936;-77
2021/07/01 00:31:17;;;;;;;;;;;18.60;63.20;;;;;;1486875;39;20029;-75
2021/07/01 00:32:38;;;;;;;;;;;18.60;63.20;;;;;;1488558;40;19936;-74
2021/07/01 00:34:00;;;;;;;;;;;18.60;63.00;;;;;;1486091;40;19960;-75
2021/07/01 00:35:21;;;;;;;;;;;18.60;63.10;;;;;;1486615;40;20524;-75
2021/07/01 00:36:41;;;;;;;;;;;18.60;63.20;;;;;;1487732;40;19962;-75
2021/07/01 00:38:03;;;;;;;;;;;18.60;63.10;;;;;;1484594;40;19939;-76
2021/07/01 00:39:23;;;;;;;;;;;18.60;63.20;;;;;;1485825;40;19951;-76
2021/07/01 00:40:44;;;;;;;;;;;18.60;63.20;;;;;;1486912;40;19940;-76
2021/07/01 00:42:05;;;;;;;;;;;18.60;63.10;;;;;;1487727;40;19936;-76
2021/07/01 00:43:26;;;;;;;;;;;18.60;63.10;;;;;;1487812;40;19932;-75
2021/07/01 00:44:47;;;;;;;;;;;18.60;63.10;;;;;;1487404;40;19944;-75
2021/07/01 00:46:11;;;;;;;;;;;18.60;63.00;;;;;;1486680;40;19939;-75
2021/07/01 00:47:32;;;;;;;;;;;18.60;63.20;;;;;;1488909;40;20407;-76
2021/07/01 00:48:53;;;;;;;;;;;18.60;63.20;;;;;;1488319;40;19938;-76
2021/07/01 00:50:14;;;;;;;;;;;18.60;63.20;;;;;;1487773;39;19932;-76
2021/07/01 00:51:35;;;;;;;;;;;18.60;63.20;;;;;;1488621;39;19936;-77
2021/07/01 00:52:55;;;;;;;;;;;18.60;63.20;;;;;;1487421;40;19979;-76
2021/07/01 00:54:16;;;;;;;;;;;18.50;63.10;;;;;;1486977;40;19940;-76
2021/07/01 00:55:38;;;;;;;;;;;18.90;63.40;;;;;;1487739;40;19939;-76
2021/07/01 00:56:58;;;;;;;;;;;18.60;63.20;;;;;;1486063;40;19939;-76
2021/07/01 00:58:19;;;;;;;;;;;18.60;63.40;;;;;;1488393;40;19936;-76
2021/07/01 00:59:40;;;;;;;;;;;18.60;63.50;;;;;;1488154;40;20114;-76
2021/07/01 01:01:02;;;;;;;;;;;18.50;63.20;;;;;;1486671;40;19936;-76
2021/07/01 01:02:22;;;;;;;;;;;18.60;63.20;;;;;;1482608;40;19937;-77
2021/07/01 01:03:43;;;;;;;;;;;18.50;63.20;;;;;;1486202;40;19976;-76
2021/07/01 01:05:04;;;;;;;;;;;18.60;63.20;;;;;;1486114;40;19942;-76
2021/07/01 01:06:25;;;;;;;;;;;18.50;63.30;;;;;;1485957;40;19931;-76
2021/07/01 01:07:46;;;;;;;;;;;18.50;63.90;;;;;;1484542;40;19957;-77
2021/07/01 01:09:09;;;;;;;;;;;18.50;63.30;;;;;;1485869;39;19932;-77
2021/07/01 01:10:29;;;;;;;;;;;18.50;63.30;;;;;;1486274;39;19932;-76
2021/07/01 01:11:50;;;;;;;;;;;18.50;63.60;;;;;;1486007;40;19944;-76
2021/07/01 01:13:14;;;;;;;;;;;18.50;63.50;;;;;;1486615;40;19943;-76
2021/07/01 01:14:34;;;;;;;;;;;18.50;63.30;;;;;;1487492;40;19962;-76
2021/07/01 01:15:56;;;;;;;;;;;18.50;63.10;;;;;;1482193;40;19963;-76
2021/07/01 01:17:17;;;;;;;;;;;18.50;63.20;;;;;;1484420;40;19970;-76
2021/07/01 01:18:38;;;;;;;;;;;19.50;63.90;;;;;;1486140;40;21698;-76
2021/07/01 01:19:59;;;;;;;;;;;18.50;63.40;;;;;;1482974;40;19966;-76
2021/07/01 01:21:24;;;;;;;;;;;18.50;63.30;;;;;;1484721;40;20066;-76
2021/07/01 01:22:45;;;;;;;;;;;18.50;63.20;;;;;;1483147;40;19936;-76
2021/07/01 01:24:07;;;;;;;;;;;18.50;63.20;;;;;;1484520;40;20443;-76
2021/07/01 01:25:28;;;;;;;;;;;18.50;63.20;;;;;;1486777;40;20262;-76
2021/07/01 01:26:48;;;;;;;;;;;20.00;64.20;;;;;;1487669;40;19936;-76
2021/07/01 01:28:09;;;;;;;;;;;18.50;63.20;;;;;;1487048;40;19936;-76
2021/07/01 01:29:30;;;;;;;;;;;18.50;63.20;;;;;;1487620;40;19948;-76
2021/07/01 01:30:51;;;;;;;;;;;18.50;63.30;;;;;;1487076;40;19936;-76
2021/07/01 01:32:12;;;;;;;;;;;18.50;63.30;;;;;;1486243;40;20278;-76
2021/07/01 01:33:33;;;;;;;;;;;18.50;63.30;;;;;;1487083;39;20192;-77
2021/07/01 01:34:54;;;;;;;;;;;18.50;63.30;;;;;;1487685;40;19940;-76
2021/07/01 01:36:14;;;;;;;;;;;18.50;63.50;;;;;;1486277;40;19947;-76
2021/07/01 01:37:35;;;;;;;;;;;18.50;63.50;;;;;;1488565;39;19936;-76
2021/07/01 01:38:56;;;;;;;;;;;18.50;63.50;;;;;;1487454;40;20020;-76
2021/07/01 01:40:17;;;;;;;;;;;18.50;63.40;;;;;;1486166;39;20241;-76
2021/07/01 01:41:41;;;;;;;;;;;18.50;63.40;;;;;;1487578;40;19932;-76
2021/07/01 01:43:01;;;;;;;;;;;18.60;63.30;;;;;;1482210;40;19936;-76
2021/07/01 01:44:22;;;;;;;;;;;18.50;63.10;;;;;;1486336;40;19929;-76
2021/07/01 01:45:43;;;;;;;;;;;18.50;63.10;;;;;;1488845;40;19944;-76
2021/07/01 01:47:13;;;;;;;;;;;18.50;63.10;;;;;;1483703;40;19976;-76
2021/07/01 01:48:34;;;;;;;;;;;18.50;63.20;;;;;;1486735;40;19944;-76
2021/07/01 01:49:54;;;;;;;;;;;18.50;63.10;;;;;;1487979;40;20189;-76
2021/07/01 01:51:15;;;;;;;;;;;18.50;63.10;;;;;;1487757;40;19947;-76
2021/07/01 01:52:36;;;;;;;;;;;18.50;63.20;;;;;;1486250;40;19940;-76
2021/07/01 01:53:57;;;;;;;;;;;18.60;63.20;;;;;;1486263;40;20033;-76
2021/07/01 01:55:18;;;;;;;;;;;18.50;63.30;;;;;;1486549;40;19944;-75
2021/07/01 01:56:48;;;;;;;;;;;18.50;63.30;;;;;;1486870;40;19948;-75
2021/07/01 01:58:08;;;;;;;;;;;18.50;63.20;;;;;;1487958;39;19976;-76
2021/07/01 01:59:29;;;;;;;;;;;18.50;63.10;;;;;;1486151;39;19932;-76
2021/07/01 02:00:50;;;;;;;;;;;18.50;63.10;;;;;;1486705;39;19939;-76
2021/07/01 02:02:11;;;;;;;;;;;18.50;63.10;;;;;;1488457;39;19944;-76
2021/07/01 02:03:32;;;;;;;;;;;18.50;63.10;;;;;;1485356;40;19944;-76
2021/07/01 02:04:52;;;;;;;;;;;18.50;63.20;;;;;;1487040;40;19940;-76
2021/07/01 02:06:13;;;;;;;;;;;18.50;63.20;;;;;;1487516;40;20255;-76
2021/07/01 02:07:34;;;;;;;;;;;18.50;63.20;;;;;;1488149;40;19947;-76
2021/07/01 02:08:55;;;;;;;;;;;18.50;63.30;;;;;;1487212;40;19964;-76
2021/07/01 02:10:17;;;;;;;;;;;18.50;63.30;;;;;;1486902;40;19947;-76
2021/07/01 02:11:38;;;;;;;;;;;18.50;63.30;;;;;;1486506;40;19994;-76
2021/07/01 02:12:58;;;;;;;;;;;18.50;63.40;;;;;;1487426;40;19948;-76
2021/07/01 02:14:19;;;;;;;;;;;18.50;63.30;;;;;;1486528;40;19947;-76
2021/07/01 02:15:40;;;;;;;;;;;18.50;63.30;;;;;;1486321;40;19937;-76
2021/07/01 02:17:01;;;;;;;;;;;18.50;63.30;;;;;;1487295;40;20334;-76
2021/07/01 02:18:22;;;;;;;;;;;18.50;63.30;;;;;;1485658;40;19932;-76
2021/07/01 02:19:43;;;;;;;;;;;18.50;63.30;;;;;;1485764;40;20292;-76
2021/07/01 02:21:04;;;;;;;;;;;18.60;63.50;;;;;;1483606;40;19976;-76
2021/07/01 02:22:25;;;;;;;;;;;18.50;63.30;;;;;;1481667;40;20002;-76
2021/07/01 02:23:46;;;;;;;;;;;18.50;63.30;;;;;;1485185;39;20265;-76
2021/07/01 02:25:08;;;;;;;;;;;18.50;63.30;;;;;;1487367;39;19944;-76
2021/07/01 02:26:29;;;;;;;;;;;18.50;63.40;;;;;;1487683;40;19989;-76
2021/07/01 02:27:49;;;;;;;;;;;18.50;63.30;;;;;;1487262;40;19947;-76
2021/07/01 02:29:10;;;;;;;;;;;18.50;63.30;;;;;;1486200;40;19936;-77
2021/07/01 02:30:31;;;;;;;;;;;18.50;63.50;;;;;;1482495;40;19936;-76
2021/07/01 02:31:52;;;;;;;;;;;18.50;63.50;;;;;;1485055;40;20265;-76
2021/07/01 02:33:13;;;;;;;;;;;18.50;63.40;;;;;;1486056;40;19936;-76
2021/07/01 02:34:39;;;;;;;;;;;18.50;63.30;;;;;;1486503;40;20047;-76
2021/07/01 02:36:00;;;;;;;;;;;18.50;63.30;;;;;;1487905;39;19959;-76
2021/07/01 02:37:22;;;;;;;;;;;18.50;63.50;;;;;;1488005;40;19931;-76
2021/07/01 02:38:43;;;;;;;;;;;18.50;63.40;;;;;;1486051;40;19940;-76
2021/07/01 02:40:05;;;;;;;;;;;18.50;63.50;;;;;;1488394;40;19936;-76
2021/07/01 02:41:25;;;;;;;;;;;18.50;63.40;;;;;;1488298;40;19947;-75
2021/07/01 02:42:46;;;;;;;;;;;18.50;63.50;;;;;;1486515;40;20370;-75
2021/07/01 02:44:07;;;;;;;;;;;18.40;63.40;;;;;;1487133;40;20029;-75
2021/07/01 02:45:28;;;;;;;;;;;18.50;63.40;;;;;;1485830;40;20266;-75
2021/07/01 02:46:48;;;;;;;;;;;18.20;63.50;;;;;;1482193;40;20294;-76
2021/07/01 02:48:09;;;;;;;;;;;17.90;63.40;;;;;;1487429;39;19939;-75
2021/07/01 02:49:30;;;;;;;;;;;18.50;63.50;;;;;;1486351;40;19947;-76
2021/07/01 02:50:51;;;;;;;;;;;18.50;63.50;;;;;;1486818;40;19952;-76
2021/07/01 02:52:12;;;;;;;;;;;18.50;63.50;;;;;;1487056;40;20028;-76
2021/07/01 02:53:33;;;;;;;;;;;18.50;63.50;;;;;;1482280;40;20046;-76
2021/07/01 02:54:54;;;;;;;;;;;18.50;63.40;;;;;;1483534;40;19937;-76
2021/07/01 02:56:14;;;;;;;;;;;18.50;63.30;;;;;;1487419;40;20016;-77
2021/07/01 02:57:36;;;;;;;;;;;18.50;63.40;;;;;;1487657;40;20255;-76
2021/07/01 02:58:56;;;;;;;;;;;18.50;63.30;;;;;;1486806;40;19968;-76
2021/07/01 03:00:17;;;;;;;;;;;18.50;63.40;;;;;;1486147;40;20276;-75
2021/07/01 03:01:38;;;;;;;;;;;18.50;63.40;;;;;;1487840;40;20013;-76
2021/07/01 03:02:59;;;;;;;;;;;18.50;63.40;;;;;;1487497;40;19950;-76
2021/07/01 03:04:20;;;;;;;;;;;18.50;63.70;;;;;;1483029;40;19956;-76
2021/07/01 03:05:40;;;;;;;;;;;18.50;63.60;;;;;;1483560;39;20030;-76
2021/07/01 03:07:01;;;;;;;;;;;18.50;63.50;;;;;;1487379;39;20218;-76
2021/07/01 03:08:22;;;;;;;;;;;18.50;63.60;;;;;;1486966;40;19979;-76
2021/07/01 03:09:43;;;;;;;;;;;18.00;63.20;;;;;;1481745;40;20231;-76
2021/07/01 03:11:03;;;;;;;;;;;18.50;63.50;;;;;;1484996;40;19948;-76
2021/07/01 03:12:24;;;;;;;;;;;18.50;63.60;;;;;;1487240;40;19948;-77
2021/07/01 03:13:45;;;;;;;;;;;18.50;63.80;;;;;;1487671;40;19932;-76
2021/07/01 03:15:06;;;;;;;;;;;18.50;63.60;;;;;;1486000;40;19940;-76
2021/07/01 03:16:27;;;;;;;;;;;18.50;63.60;;;;;;1487809;40;19940;-76
2021/07/01 03:17:47;;;;;;;;;;;18.50;63.60;;;;;;1487499;40;19936;-77
2021/07/01 03:19:08;;;;;;;;;;;18.40;63.60;;;;;;1485504;40;19939;-76
2021/07/01 03:20:29;;;;;;;;;;;18.50;63.60;;;;;;1482786;40;19968;-75
2021/07/01 03:21:50;;;;;;;;;;;18.50;63.50;;;;;;1485107;40;19932;-76
2021/07/01 03:23:11;;;;;;;;;;;18.40;63.50;;;;;;1482691;40;20296;-75
2021/07/01 03:24:32;;;;;;;;;;;18.40;63.50;;;;;;1485678;40;19932;-76
2021/07/01 03:25:52;;;;;;;;;;;18.40;63.60;;;;;;1485774;39;20034;-76
2021/07/01 03:27:13;;;;;;;;;;;18.40;63.50;;;;;;1480922;40;20245;-76
2021/07/01 03:28:34;;;;;;;;;;;18.40;63.60;;;;;;1486704;40;20188;-76
2021/07/01 03:29:55;;;;;;;;;;;18.40;63.60;;;;;;1485705;40;19944;-76
2021/07/01 03:31:16;;;;;;;;;;;18.40;63.70;;;;;;1482180;40;19978;-76
2021/07/01 03:32:37;;;;;;;;;;;18.40;63.70;;;;;;1486528;40;19980;-76
2021/07/01 03:33:57;;;;;;;;;;;18.40;64.00;;;;;;1487022;40;19946;-76
2021/07/01 03:35:18;;;;;;;;;;;18.40;63.90;;;;;;1487184;40;19972;-76
2021/07/01 03:36:39;;;;;;;;;;;18.40;63.80;;;;;;1487469;40;19941;-76
2021/07/01 03:38:00;;;;;;;;;;;18.40;63.80;;;;;;1487403;40;20430;-76
2021/07/01 03:39:21;;;;;;;;;;;19.00;64.20;;;;;;1486554;40;19936;-76
2021/07/01 03:40:42;;;;;;;;;;;18.40;64.40;;;;;;1488080;40;19932;-76
2021/07/01 03:42:03;;;;;;;;;;;18.40;63.90;;;;;;1486898;40;19941;-76
2021/07/01 03:43:24;;;;;;;;;;;18.40;64.00;;;;;;1482488;40;19940;-76
2021/07/01 03:44:45;;;;;;;;;;;18.40;64.30;;;;;;1485654;40;19974;-76
2021/07/01 03:46:06;;;;;;;;;;;18.40;64.00;;;;;;1487454;40;19932;-77
2021/07/01 03:47:26;;;;;;;;;;;18.30;63.80;;;;;;1482282;40;19991;-76
2021/07/01 03:48:47;;;;;;;;;;;18.40;63.80;;;;;;1485415;39;20015;-76
2021/07/01 03:50:08;;;;;;;;;;;18.30;63.90;;;;;;1486001;39;19938;-76
2021/07/01 03:51:29;;;;;;;;;;;18.30;63.90;;;;;;1485743;39;20115;-76
2021/07/01 03:52:50;;;;;;;;;;;18.30;64.00;;;;;;1487204;39;20425;-75
2021/07/01 03:54:11;;;;;;;;;;;18.30;63.90;;;;;;1484896;40;20238;-74
2021/07/01 03:55:31;;;;;;;;;;;18.30;64.00;;;;;;1487711;40;20208;-76
2021/07/01 03:56:52;;;;;;;;;;;18.30;63.90;;;;;;1487329;40;19936;-76
2021/07/01 03:58:13;;;;;;;;;;;18.30;64.00;;;;;;1485708;40;19932;-76
2021/07/01 03:59:34;;;;;;;;;;;18.30;63.90;;;;;;1487834;40;19943;-77
2021/07/01 04:00:55;;;;;;;;;;;18.30;63.90;;;;;;1487251;40;20372;-75
2021/07/01 04:02:15;;;;;;;;;;;18.30;63.80;;;;;;1488428;40;19947;-75
2021/07/01 04:03:36;;;;;;;;;;;18.30;63.80;;;;;;1488533;40;19994;-75
2021/07/01 04:04:57;;;;;;;;;;;18.30;64.30;;;;;;1486176;40;19935;-75
2021/07/01 04:06:18;;;;;;;;;;;18.30;64.20;;;;;;1484738;40;19937;-76
2021/07/01 04:07:39;;;;;;;;;;;18.30;64.20;;;;;;1486542;40;19959;-76
2021/07/01 04:09:00;;;;;;;;;;;17.80;63.90;;;;;;1487088;39;19987;-77
2021/07/01 04:10:21;;;;;;;;;;;18.30;64.40;;;;;;1487643;40;19936;-75
2021/07/01 04:11:42;;;;;;;;;;;18.30;64.60;;;;;;1485302;40;19972;-76
2021/07/01 04:13:02;;;;;;;;;;;18.30;64.50;;;;;;1487017;40;19979;-76
2021/07/01 04:14:23;;;;;;;;;;;18.20;64.60;;;;;;1487685;40;19944;-76
2021/07/01 04:15:44;;;;;;;;;;;18.30;64.60;;;;;;1487861;40;19936;-76
2021/07/01 04:17:05;;;;;;;;;;;18.20;64.50;;;;;;1487776;40;19944;-75
2021/07/01 04:18:26;;;;;;;;;;;18.30;64.60;;;;;;1487082;40;19946;-76
2021/07/01 04:19:47;;;;;;;;;;;18.20;65.30;;;;;;1485763;40;19984;-75
2021/07/01 04:21:08;;;;;;;;;;;18.20;64.50;;;;;;1487153;40;19964;-75
2021/07/01 04:22:28;;;;;;;;;;;18.20;64.60;;;;;;1488270;40;19939;-76
2021/07/01 04:23:49;;;;;;;;;;;18.20;64.80;;;;;;1487061;40;19947;-76
2021/07/01 04:25:10;;;;;;;;;;;18.20;65.00;;;;;;1487223;40;19944;-76
2021/07/01 04:26:31;;;;;;;;;;;18.20;64.90;;;;;;1487675;40;19999;-76
2021/07/01 04:27:52;;;;;;;;;;;18.20;64.60;;;;;;1481444;40;19952;-76
2021/07/01 04:29:13;;;;;;;;;;;18.10;65.30;;;;;;1485783;40;20282;-76
2021/07/01 04:30:34;;;;;;;;;;;18.10;65.10;;;;;;1486803;40;19993;-75
2021/07/01 04:31:55;;;;;;;;;;;18.10;64.80;;;;;;1487229;40;20241;-76
2021/07/01 04:33:15;;;;;;;;;;;18.10;64.70;;;;;;1486687;39;19935;-76
2021/07/01 04:34:36;;;;;;;;;;;18.10;64.60;;;;;;1486694;40;19943;-76
2021/07/01 04:35:57;;;;;;;;;;;18.10;64.70;;;;;;1487057;40;20035;-76
2021/07/01 04:37:18;;;;;;;;;;;19.20;65.50;;;;;;1487855;40;19932;-76
2021/07/01 04:38:39;;;;;;;;;;;18.20;64.70;;;;;;1486291;40;19944;-76
2021/07/01 04:40:01;;;;;;;;;;;18.10;64.60;;;;;;1487059;40;19932;-75
2021/07/01 04:41:21;;;;;;;;;;;18.10;64.70;;;;;;1486932;40;19940;-75
2021/07/01 04:42:42;;;;;;;;;;;18.10;64.50;;;;;;1486521;40;19943;-76
2021/07/01 04:44:04;;;;;;;;;;;18.10;64.50;;;;;;1486184;40;19939;-75
2021/07/01 04:45:25;;;;;;;;;;;18.10;64.50;;;;;;1486415;40;19972;-76
2021/07/01 04:46:46;;;;;;;;;;;18.10;64.50;;;;;;1486648;40;19928;-76
2021/07/01 04:48:07;;;;;;;;;;;18.10;64.40;;;;;;1485392;40;19940;-76
2021/07/01 04:49:28;;;;;;;;;;;18.10;64.40;;;;;;1486595;39;20194;-76
2021/07/01 04:50:48;;;;;;;;;;;18.10;64.40;;;;;;1486126;39;19979;-77
2021/07/01 04:52:09;;;;;;;;;;;18.10;64.70;;;;;;1487792;39;19943;-76
2021/07/01 04:53:30;;;;;;;;;;;18.10;64.60;;;;;;1487282;40;20028;-76
2021/07/01 04:54:51;;;;;;;;;;;18.10;64.50;;;;;;1487471;39;19947;-76
2021/07/01 04:56:12;;;;;;;;;;;18.10;64.30;;;;;;1483394;40;19932;-76
2021/07/01 04:57:32;;;;;;;;;;;18.10;65.00;;;;;;1485700;40;19944;-75
2021/07/01 04:58:53;;;;;;;;;;;18.10;64.20;;;;;;1485195;40;19961;-76
2021/07/01 05:00:14;;;;;;;;;;;18.00;64.30;;;;;;1487303;40;20219;-76
2021/07/01 05:01:35;;;;;;;;;;;18.10;64.20;;;;;;1488957;40;19939;-76
2021/07/01 05:02:56;;;;;;;;;;;18.10;64.30;;;;;;1487246;40;20213;-76
2021/07/01 05:04:16;;;;;;;;;;;18.10;64.20;;;;;;1487475;40;20025;-75
2021/07/01 05:05:37;;;;;;;;;;;18.10;64.40;;;;;;1486626;40;19976;-76
2021/07/01 05:06:58;;;;;;;;;;;18.70;64.50;;;;;;1485536;40;19960;-76
2021/07/01 05:08:19;;;;;;;;;;;18.10;64.20;;;;;;1488041;40;19955;-76
2021/07/01 05:09:40;;;;;;;;;;;18.10;64.00;;;;;;1488597;40;19936;-76
2021/07/01 05:11:01;;;;;;;;;;;18.10;64.00;;;;;;1486292;40;19932;-77
2021/07/01 05:12:21;;;;;;;;;;;18.10;64.20;;;;;;1488483;39;19948;-76
2021/07/01 05:13:42;;;;;;;;;;;18.10;64.00;;;;;;1486880;40;19943;-76
2021/07/01 05:15:04;;;;;;;;;;;18.10;64.10;;;;;;1486178;40;19966;-76
2021/07/01 05:16:28;;;;;;;;;;;18.10;64.10;;;;;;1487712;39;19939;-76
2021/07/01 05:17:49;;;;;;;;;;;18.10;64.10;;;;;;1486353;39;19999;-75
2021/07/01 05:19:10;;;;;;;;;;;18.10;64.20;;;;;;1484363;40;19936;-75
2021/07/01 05:20:31;;;;;;;;;;;18.20;64.20;;;;;;1488110;40;19940;-76
2021/07/01 05:21:51;;;;;;;;;;;18.10;64.10;;;;;;1486747;40;19988;-75
2021/07/01 05:23:12;;;;;;;;;;;18.20;64.00;;;;;;1488967;40;19936;-75
2021/07/01 05:24:33;;;;;;;;;;;18.10;64.00;;;;;;1486170;40;20245;-75
2021/07/01 05:25:54;;;;;;;;;;;18.20;64.10;;;;;;1486668;40;19973;-75
2021/07/01 05:27:14;;;;;;;;;;;18.20;64.00;;;;;;1489230;40;20172;-75
2021/07/01 05:28:35;;;;;;;;;;;18.20;63.90;;;;;;1488502;40;19962;-75
2021/07/01 05:29:56;;;;;;;;;;;18.10;63.90;;;;;;1487294;40;20027;-75
2021/07/01 05:31:17;;;;;;;;;;;18.20;63.90;;;;;;1488158;40;19983;-74
2021/07/01 05:32:38;;;;;;;;;;;18.20;63.90;;;;;;1487178;40;19943;-75
2021/07/01 05:33:59;;;;;;;;;;;18.20;64.00;;;;;;1488208;40;20160;-75
2021/07/01 05:35:20;;;;;;;;;;;18.20;63.90;;;;;;1483212;40;19937;-76
2021/07/01 05:36:41;;;;;;;;;;;18.20;63.90;;;;;;1485226;40;20237;-75
2021/07/01 05:38:02;;;;;;;;;;;18.20;64.20;;;;;;1486452;39;19932;-75
2021/07/01 05:39:23;;;;;;;;;;;18.20;64.00;;;;;;1488648;40;19942;-75
2021/07/01 05:40:43;;;;;;;;;;;18.20;64.00;;;;;;1482780;40;19939;-75
2021/07/01 05:42:04;;;;;;;;;;;18.20;63.90;;;;;;1485104;40;20188;-75
2021/07/01 05:43:25;;;;;;;;;;;18.20;63.90;;;;;;1482961;40;19952;-75
2021/07/01 05:44:46;;;;;;;;;;;18.20;64.00;;;;;;1486330;40;19932;-74
2021/07/01 05:46:08;;;;;;;;;;;18.20;64.10;;;;;;1486706;40;20298;-75
2021/07/01 05:47:30;;;;;;;;;;;18.20;64.20;;;;;;1487089;40;19940;-75
2021/07/01 05:48:50;;;;;;;;;;;18.20;64.10;;;;;;1486962;40;19939;-75
2021/07/01 05:50:12;;;;;;;;;;;18.20;64.90;;;;;;1486841;40;20066;-75
2021/07/01 05:51:35;;;;;;;;;;;18.20;64.30;;;;;;1488469;40;19939;-74
2021/07/01 05:53:00;;;;;;;;;;;18.30;64.30;;;;;;1485949;39;20364;-75
2021/07/01 05:55:42;;;;;;;;;;;18.30;64.20;;;;;;1489377;40;19966;-75
2021/07/01 05:57:03;;;;;;;;;;;18.30;64.00;;;;;;1485797;40;19943;-75
2021/07/01 05:58:24;;;;;;;;;;;18.30;64.10;;;;;;1487404;40;19959;-75
2021/07/01 05:59:45;;;;;;;;;;;18.30;64.00;;;;;;1487013;40;20017;-75
2021/07/01 06:01:06;;;;;;;;;;;18.30;64.10;;;;;;1486631;39;19939;-75
2021/07/01 06:02:27;;;;;;;;;;;18.30;64.00;;;;;;1488063;40;19992;-75
2021/07/01 06:03:48;;;;;;;;;;;18.30;64.10;;;;;;1488908;40;20526;-74
2021/07/01 06:05:09;;;;;;;;;;;18.40;64.30;;;;;;1487437;40;20258;-75
2021/07/01 06:06:31;;;;;;;;;;;18.40;64.20;;;;;;1489144;40;19951;-75
2021/07/01 06:07:52;;;;;;;;;;;18.40;64.00;;;;;;1487633;40;19940;-74
2021/07/01 06:09:14;;;;;;;;;;;18.40;63.90;;;;;;1487613;40;19971;-74
2021/07/01 06:10:39;;;;;;;;;;;18.40;64.00;;;;;;1486915;40;20024;-74
2021/07/01 06:12:00;;;;;;;;;;;18.40;64.00;;;;;;1485735;40;19941;-75
2021/07/01 06:13:23;;;;;;;;;;;18.40;64.00;;;;;;1488416;40;19938;-75
2021/07/01 06:14:44;;;;;;;;;;;18.40;63.90;;;;;;1487169;40;19940;-74
2021/07/01 06:16:09;;;;;;;;;;;18.40;64.00;;;;;;1488128;40;20359;-74
2021/07/01 06:17:33;;;;;;;;;;;18.40;63.80;;;;;;1487654;40;20021;-73
2021/07/01 06:18:54;;;;;;;;;;;18.50;63.90;;;;;;1487561;39;19940;-75
2021/07/01 06:20:16;;;;;;;;;;;18.50;63.90;;;;;;1489464;39;20091;-76
2021/07/01 06:21:37;;;;;;;;;;;18.50;63.90;;;;;;1488515;40;20057;-76
2021/07/01 06:22:58;;;;;;;;;;;18.50;63.90;;;;;;1489496;40;20176;-75
2021/07/01 06:24:19;;;;;;;;;;;18.50;63.80;;;;;;1489331;40;20000;-76
2021/07/01 06:25:40;;;;;;;;;;;18.50;63.80;;;;;;1486904;40;19937;-76
2021/07/01 06:27:01;;;;;;;;;;;18.50;63.90;;;;;;1484414;40;19980;-77
2021/07/01 06:28:22;;;;;;;;;;;18.50;63.80;;;;;;1486547;40;20029;-76
2021/07/01 06:29:44;;;;;;;;;;;18.60;63.90;;;;;;1489348;40;19948;-76
2021/07/01 06:31:04;;;;;;;;;;;18.60;63.80;;;;;;1485451;40;20021;-76
2021/07/01 06:32:25;;;;;;;;;;;18.60;63.80;;;;;;1484253;40;20320;-76
2021/07/01 06:33:46;;;;;;;;;;;18.60;63.70;;;;;;1485407;40;19940;-76
2021/07/01 06:35:08;;;;;;;;;;;18.60;64.30;;;;;;1486926;40;19948;-76
2021/07/01 06:36:29;;;;;;;;;;;18.60;63.60;;;;;;1488111;40;20244;-74
2021/07/01 06:37:50;;;;;;;;;;;18.60;63.50;;;;;;1486029;40;20017;-75
2021/07/01 06:39:12;;;;;;;;;;;18.60;63.40;;;;;;1489263;40;19932;-73
2021/07/01 06:40:33;;;;;;;;;;;18.60;63.40;;;;;;1487906;39;19967;-74
2021/07/01 06:41:54;;;;;;;;;;;18.60;63.40;;;;;;1488997;40;19932;-75
2021/07/01 06:43:18;;;;;;;;;;;18.60;63.20;;;;;;1488199;40;19976;-76
2021/07/01 06:44:40;;;;;;;;;;;18.60;63.20;;;;;;1488619;40;20061;-75
2021/07/01 06:46:02;;;;;;;;;;;18.60;63.20;;;;;;1485545;40;19948;-75
2021/07/01 06:47:23;;;;;;;;;;;18.70;63.40;;;;;;1487005;40;20208;-76
2021/07/01 06:48:45;;;;;;;;;;;18.70;63.30;;;;;;1487391;40;19981;-76
2021/07/01 06:50:08;;;;;;;;;;;18.60;63.10;;;;;;1490381;40;19936;-75
2021/07/01 06:51:35;;;;;;;;;;;18.70;63.20;;;;;;1488260;40;19947;-74
2021/07/01 06:52:57;;;;;;;;;;;18.60;62.90;;;;;;1489729;40;20495;-75
2021/07/01 06:54:18;;;;;;;;;;;18.70;63.00;;;;;;1488997;40;19932;-76
2021/07/01 06:55:39;;;;;;;;;;;18.70;63.00;;;;;;1487322;40;20245;-75
2021/07/01 06:57:00;;;;;;;;;;;18.70;63.10;;;;;;1489244;40;19932;-75
2021/07/01 06:58:21;;;;;;;;;;;18.70;63.00;;;;;;1483342;40;19990;-76
2021/07/01 06:59:42;;;;;;;;;;;18.70;63.00;;;;;;1488278;40;20032;-75
2021/07/01 07:01:04;;;;;;;;;;;18.70;63.00;;;;;;1489237;39;19944;-75
2021/07/01 07:02:24;;;;;;;;;;;18.70;63.20;;;;;;1488988;40;19947;-75
2021/07/01 07:03:45;;;;;;;;;;;18.70;63.10;;;;;;1484089;40;19948;-74
2021/07/01 07:05:07;;;;;;;;;;;18.70;63.10;;;;;;1488629;40;19932;-75
2021/07/01 07:06:28;;;;;;;;;;;18.70;63.00;;;;;;1489389;40;19943;-75
2021/07/01 07:07:49;;;;;;;;;;;18.70;62.90;;;;;;1489264;40;19944;-75
2021/07/01 07:09:14;;;;;;;;;;;18.70;62.90;;;;;;1487543;40;19939;-75
2021/07/01 07:10:39;;;;;;;;;;;18.70;62.80;;;;;;1490142;40;19944;-75
2021/07/01 07:12:00;;;;;;;;;;;18.80;62.90;;;;;;1486763;40;19943;-75
2021/07/01 07:13:24;;;;;;;;;;;20.30;63.70;;;;;;1488873;40;19936;-74
2021/07/01 07:14:45;;;;;;;;;;;18.80;62.70;;;;;;1489452;40;20312;-75
2021/07/01 07:16:06;;;;;;;;;;;18.80;62.70;;;;;;1489233;40;19943;-75
2021/07/01 07:17:28;;;;;;;;;;;18.80;62.60;;;;;;1488613;40;19955;-75
2021/07/01 07:18:49;;;;;;;;;;;18.80;62.40;;;;;;1489764;39;20014;-75
2021/07/01 07:20:13;;;;;;;;;;;18.80;62.30;;;;;;1489543;39;19939;-75
2021/07/01 07:21:36;;;;;;;;;;;18.80;62.40;;;;;;1489825;39;19950;-75
2021/07/01 07:22:58;;;;;;;;;;;18.80;62.30;;;;;;1487868;40;19939;-75
2021/07/01 07:24:20;;;;;;;;;;;18.80;62.20;;;;;;1488943;40;20152;-75
2021/07/01 07:25:41;;;;;;;;;;;18.80;62.10;;;;;;1486288;40;19986;-75
2021/07/01 07:27:03;;;;;;;;;;;18.80;62.20;;;;;;1489572;40;20025;-75
2021/07/01 07:28:25;;;;;;;;;;;18.80;62.20;;;;;;1488548;40;19940;-75
2021/07/01 07:29:46;;;;;;;;;;;18.80;62.20;;;;;;1486811;40;19986;-75
2021/07/01 07:31:09;;;;;;;;;;;18.90;62.30;;;;;;1485100;40;19945;-75
2021/07/01 07:32:31;;;;;;;;;;;18.90;62.30;;;;;;1488037;40;19932;-75
2021/07/01 07:33:52;;;;;;;;;;;18.90;62.30;;;;;;1484424;40;20253;-75
2021/07/01 07:35:14;;;;;;;;;;;18.90;63.00;;;;;;1486192;40;19944;-75
2021/07/01 07:36:35;;;;;;;;;;;18.90;62.40;;;;;;1489391;40;19936;-75
2021/07/01 07:37:56;;;;;;;;;;;18.90;62.40;;;;;;1488638;40;19932;-75
2021/07/01 07:39:17;;;;;;;;;;;18.90;62.40;;;;;;1488890;40;19936;-74
2021/07/01 07:40:38;;;;;;;;;;;18.90;62.40;;;;;;1489668;40;19951;-74
2021/07/01 07:41:59;;;;;;;;;;;19.00;62.50;;;;;;1489493;39;19936;-74
2021/07/01 07:43:21;;;;;;;;;;;19.00;62.60;;;;;;1488653;39;20126;-74
2021/07/01 07:44:42;;;;;;;;;;;19.00;62.60;;;;;;1487015;39;20219;-75
2021/07/01 07:46:02;;;;;;;;;;;19.00;62.60;;;;;;1487116;40;19933;-74
2021/07/01 07:47:23;;;;;;;;;;;19.00;62.60;;;;;;1488463;40;19936;-75
2021/07/01 07:48:44;;;;;;;;;;;19.10;62.70;;;;;;1490040;40;20334;-73
2021/07/01 07:50:07;;;;;;;;;;;19.10;62.70;;;;;;1486293;40;19942;-75
2021/07/01 07:51:32;;;;;;;;;;;19.20;62.80;;;;;;1489652;40;20166;-74
2021/07/01 07:52:54;;;;;;;;;;;19.20;62.80;;;;;;1487917;40;19932;-74